Time,TemperatureF,DewpointF,PressureIn,WindDirection,WindDirectionDegrees,WindSpeedMPH,WindSpeedGustMPH,Humidity,HourlyPrecipIn,Conditions,Clouds,dailyrainin,SoftwareType,DateUTC
2013-07-03 00:01:00,61.0,57.0,30.07,SSW,200,5.0,-999.0,87,-99.99,,,-99.99,,2013-07-03 05:01:00,
2013-07-03 00:11:00,61.0,57.0,30.07,SW,220,5.0,-999.0,87,-99.99,,,-99.99,,2013-07-03 05:11:00,
2013-07-03 00:23:00,61.0,57.0,30.07,SSW,210,3.0,-999.0,87,-99.99,,,-99.99,,2013-07-03 05:23:00,
2013-07-03 00:37:00,61.0,57.0,30.07,North,0,0.0,-999.0,87,-99.99,,,-99.99,,2013-07-03 05:37:00,
2013-07-03 00:56:00,61.0,57.0,30.07,South,170,3.0,-999.0,87,-99.99,,,-99.99,,2013-07-03 05:56:00,
2013-07-03 01:13:00,59.0,57.0,30.07,SW,220,3.0,-999.0,93,-99.99,,,-99.99,,2013-07-03 06:13:00,
2013-07-03 01:24:00,59.0,57.0,30.06,South,190,3.0,-999.0,93,-99.99,,,-99.99,,2013-07-03 06:24:00,
2013-07-03 01:39:00,59.0,59.0,30.06,SSE,160,3.0,-999.0,100,-99.99,,,-99.99,,2013-07-03 06:39:00,
2013-07-03 01:48:00,59.0,59.0,30.07,North,0,0.0,-999.0,100,-99.99,,,-99.99,,2013-07-03 06:48:00,
2013-07-03 01:54:00,59.0,59.0,30.07,North,0,0.0,-999.0,100,-99.99,,,-99.99,,2013-07-03 06:54:00,
2013-07-03 02:04:00,59.0,59.0,30.06,North,0,0.0,-999.0,100,-99.99,,,-99.99,,2013-07-03 07:04:00,
2013-07-03 02:14:00,57.0,57.0,30.06,North,0,0.0,-999.0,100,-99.99,,,-99.99,,2013-07-03 07:14:00,
2013-07-03 02:26:00,57.0,57.0,30.06,North,0,0.0,-999.0,100,-99.99,,,-99.99,,2013-07-03 07:26:00,
2013-07-03 02:37:00,57.0,57.0,30.06,SW,220,3.0,-999.0,100,-99.99,,,-99.99,,2013-07-03 07:37:00,
2013-07-03 02:47:00,57.0,57.0,30.06,SSW,200,3.0,-999.0,100,-99.99,,,-99.99,,2013-07-03 07:47:00,
2013-07-03 02:56:00,57.0,57.0,30.06,South,190,3.0,-999.0,100,-99.99,,,-99.99,,2013-07-03 07:56:00,
2013-07-03 03:16:00,57.0,57.0,30.06,North,0,0.0,-999.0,100,-99.99,,,-99.99,,2013-07-03 08:16:00,
2013-07-03 03:25:00,57.0,57.0,30.06,North,0,0.0,-999.0,100,-99.99,,,-99.99,,2013-07-03 08:25:00,
2013-07-03 03:36:00,57.0,57.0,30.06,North,0,0.0,-999.0,100,-99.99,,,-99.99,,2013-07-03 08:36:00,
2013-07-03 03:45:00,57.0,57.0,30.06,North,0,0.0,-999.0,100,-99.99,,,-99.99,,2013-07-03 08:45:00,
2013-07-03 03:55:00,57.0,57.0,30.06,North,0,0.0,-999.0,100,-99.99,,,-99.99,,2013-07-03 08:55:00,
2013-07-03 04:05:00,57.0,57.0,30.06,North,0,0.0,-999.0,100,-99.99,,,-99.99,,2013-07-03 09:05:00,
2013-07-03 04:16:00,57.0,57.0,30.06,South,170,3.0,-999.0,100,-99.99,,,-99.99,,2013-07-03 09:16:00,
2013-07-03 04:24:00,57.0,57.0,30.06,South,170,3.0,-999.0,100,-99.99,,,-99.99,,2013-07-03 09:24:00,
2013-07-03 04:37:00,57.0,57.0,30.06,SSE,160,3.0,-999.0,100,-99.99,,,-99.99,,2013-07-03 09:37:00,
2013-07-03 04:46:00,57.0,57.0,30.06,SSE,160,3.0,-999.0,100,-99.99,,,-99.99,,2013-07-03 09:46:00,
2013-07-03 04:55:00,57.0,57.0,30.06,North,0,0.0,-999.0,100,-99.99,,,-99.99,,2013-07-03 09:55:00,
2013-07-03 05:05:00,57.0,57.0,30.05,North,0,0.0,-999.0,100,-99.99,,,-99.99,,2013-07-03 10:05:00,
2013-07-03 05:15:00,57.0,57.0,30.06,South,170,3.0,-999.0,100,-99.99,,,-99.99,,2013-07-03 10:15:00,
2013-07-03 05:28:00,57.0,57.0,30.06,North,0,0.0,-999.0,100,-99.99,,,-99.99,,2013-07-03 10:28:00,
2013-07-03 05:36:00,57.0,57.0,30.06,North,0,0.0,-999.0,100,-99.99,,,-99.99,,2013-07-03 10:36:00,
2013-07-03 05:44:00,57.0,57.0,30.06,South,170,3.0,-999.0,100,-99.99,,,-99.99,,2013-07-03 10:44:00,
2013-07-03 06:06:00,57.0,57.0,30.07,SSE,160,3.0,-999.0,100,-99.99,,,-99.99,,2013-07-03 11:06:00,
2013-07-03 06:16:00,57.0,57.0,30.07,South,180,5.0,-999.0,100,-99.99,,,-99.99,,2013-07-03 11:16:00,
2013-07-03 06:25:00,57.0,57.0,30.07,South,170,5.0,-999.0,100,-99.99,,,-99.99,,2013-07-03 11:25:00,
2013-07-03 06:38:00,57.0,57.0,30.07,SSW,200,3.0,-999.0,100,-99.99,,,-99.99,,2013-07-03 11:38:00,
2013-07-03 06:43:00,57.0,57.0,30.07,North,0,0.0,-999.0,100,-99.99,,,-99.99,,2013-07-03 11:43:00,
2013-07-03 06:53:00,57.0,57.0,30.07,North,0,0.0,-999.0,100,-99.99,,,-99.99,,2013-07-03 11:53:00,
2013-07-03 07:08:00,57.0,57.0,30.07,SSW,210,3.0,-999.0,100,-99.99,,,-99.99,,2013-07-03 12:08:00,
2013-07-03 07:16:00,57.0,57.0,30.08,North,0,0.0,-999.0,100,-99.99,,,-99.99,,2013-07-03 12:16:00,
2013-07-03 07:37:00,59.0,59.0,30.08,SW,220,6.0,-999.0,100,-99.99,,,-99.99,,2013-07-03 12:37:00,
2013-07-03 07:43:00,59.0,59.0,30.08,SW,220,3.0,-999.0,100,-99.99,,,-99.99,,2013-07-03 12:43:00,
2013-07-03 07:56:00,59.0,59.0,30.08,SW,220,3.0,-999.0,100,-99.99,,,-99.99,,2013-07-03 12:56:00,
2013-07-03 08:07:00,59.0,59.0,30.08,WSW,240,3.0,-999.0,100,-99.99,,,-99.99,,2013-07-03 13:07:00,
2013-07-03 08:16:00,61.0,59.0,30.09,WSW,250,3.0,-999.0,93,-99.99,,,-99.99,,2013-07-03 13:16:00,
2013-07-03 08:24:00,63.0,59.0,30.09,WSW,240,3.0,-999.0,88,-99.99,,,-99.99,,2013-07-03 13:24:00,
2013-07-03 08:35:00,63.0,59.0,30.09,North,0,0.0,-999.0,88,-99.99,,,-99.99,,2013-07-03 13:35:00,
2013-07-03 08:47:00,64.0,59.0,30.09,WSW,240,3.0,-999.0,82,-99.99,,,-99.99,,2013-07-03 13:47:00,
2013-07-03 08:54:00,64.0,57.0,30.09,North,0,0.0,-999.0,77,-99.99,,,-99.99,,2013-07-03 13:54:00,
2013-07-03 09:06:00,66.0,59.0,30.10,WSW,240,5.0,-999.0,77,-99.99,,,-99.99,,2013-07-03 14:06:00,
2013-07-03 09:15:00,68.0,59.0,30.10,WSW,240,3.0,-999.0,72,-99.99,,,-99.99,,2013-07-03 14:15:00,
2013-07-03 09:26:00,68.0,57.0,30.10,WSW,240,3.0,-999.0,68,-99.99,,,-99.99,,2013-07-03 14:26:00,
2013-07-03 09:37:00,70.0,57.0,30.10,WSW,250,3.0,-999.0,64,-99.99,,,-99.99,,2013-07-03 14:37:00,
2013-07-03 09:45:00,70.0,57.0,30.10,West,280,3.0,-999.0,64,-99.99,,,-99.99,,2013-07-03 14:45:00,
2013-07-03 09:54:00,72.0,57.0,30.09,North,0,0.0,-999.0,60,-99.99,,,-99.99,,2013-07-03 14:54:00,
2013-07-03 10:05:00,73.0,55.0,30.09,West,270,5.0,-999.0,53,-99.99,,,-99.99,,2013-07-03 15:05:00,
2013-07-03 10:14:00,73.0,55.0,30.09,WSW,240,7.0,-999.0,53,-99.99,,,-99.99,,2013-07-03 15:14:00,
2013-07-03 10:26:00,73.0,54.0,30.10,West,270,6.0,-999.0,49,-99.99,,,-99.99,,2013-07-03 15:26:00,
2013-07-03 10:37:00,72.0,54.0,30.10,West,270,6.0,-999.0,53,-99.99,,,-99.99,,2013-07-03 15:37:00,
2013-07-03 10:55:00,73.0,55.0,30.09,North,0,0.0,-999.0,53,-99.99,,,-99.99,,2013-07-03 15:55:00,
2013-07-03 11:06:00,75.0,55.0,30.09,North,0,0.0,-999.0,50,-99.99,,,-99.99,,2013-07-03 16:06:00,
2013-07-03 11:16:00,75.0,55.0,30.09,West,270,3.0,-999.0,50,-99.99,,,-99.99,,2013-07-03 16:16:00,
2013-07-03 11:23:00,75.0,57.0,30.09,North,0,0.0,-999.0,53,-99.99,,,-99.99,,2013-07-03 16:23:00,
2013-07-03 11:37:00,77.0,54.0,30.09,NW,310,3.0,-999.0,44,-99.99,,,-99.99,,2013-07-03 16:37:00,
2013-07-03 11:46:00,77.0,55.0,30.09,WNW,300,5.0,-999.0,47,-99.99,,,-99.99,,2013-07-03 16:46:00,
2013-07-03 11:55:00,77.0,55.0,30.09,North,350,3.0,-999.0,47,-99.99,,,-99.99,,2013-07-03 16:55:00,
2013-07-03 12:06:00,77.0,55.0,30.08,NW,310,9.0,-999.0,47,-99.99,,,-99.99,,2013-07-03 17:06:00,
2013-07-03 12:15:00,79.0,55.0,30.08,North,10,3.0,-999.0,44,-99.99,,,-99.99,,2013-07-03 17:15:00,
2013-07-03 12:24:00,79.0,55.0,30.08,West,280,8.0,-999.0,44,-99.99,,,-99.99,,2013-07-03 17:24:00,
2013-07-03 12:39:00,79.0,55.0,30.08,West,270,6.0,-999.0,44,-99.99,,,-99.99,,2013-07-03 17:39:00,
2013-07-03 12:46:00,79.0,55.0,30.08,WNW,290,7.0,-999.0,44,-99.99,,,-99.99,,2013-07-03 17:46:00,
2013-07-03 12:53:00,79.0,55.0,30.08,NNW,330,5.0,-999.0,44,-99.99,,,-99.99,,2013-07-03 17:53:00,
2013-07-03 13:15:00,79.0,55.0,30.07,NNW,330,5.0,-999.0,44,-99.99,,,-99.99,,2013-07-03 18:15:00,
2013-07-03 13:25:00,79.0,57.0,30.07,West,280,6.0,-999.0,47,-99.99,,,-99.99,,2013-07-03 18:25:00,
2013-07-03 13:36:00,79.0,57.0,30.07,West,280,6.0,-999.0,47,-99.99,,,-99.99,,2013-07-03 18:36:00,
2013-07-03 13:45:00,79.0,57.0,30.07,West,280,6.0,-999.0,47,-99.99,,,-99.99,,2013-07-03 18:45:00,
2013-07-03 13:56:00,81.0,55.0,30.07,North,0,0.0,-999.0,41,-99.99,,,-99.99,,2013-07-03 18:56:00,
2013-07-03 14:04:00,81.0,55.0,30.06,West,270,5.0,-999.0,41,-99.99,,,-99.99,,2013-07-03 19:04:00,
2013-07-03 14:15:00,81.0,55.0,30.06,West,270,3.0,-999.0,41,-99.99,,,-99.99,,2013-07-03 19:15:00,
2013-07-03 14:29:00,81.0,54.0,30.06,NW,310,7.0,-999.0,39,-99.99,,,-99.99,,2013-07-03 19:29:00,
2013-07-03 14:37:00,79.0,55.0,30.06,WNW,300,7.0,-999.0,44,-99.99,,,-99.99,,2013-07-03 19:37:00,
2013-07-03 14:46:00,79.0,55.0,30.05,NNE,30,6.0,-999.0,44,-99.99,,,-99.99,,2013-07-03 19:46:00,
2013-07-03 14:55:00,79.0,57.0,30.05,North,350,5.0,-999.0,47,-99.99,,,-99.99,,2013-07-03 19:55:00,
2013-07-03 15:13:00,79.0,55.0,30.05,North,350,3.0,-999.0,44,-99.99,,,-99.99,,2013-07-03 20:13:00,
2013-07-03 15:24:00,79.0,55.0,30.05,North,0,0.0,-999.0,44,-99.99,,,-99.99,,2013-07-03 20:24:00,
2013-07-03 15:36:00,79.0,55.0,30.04,North,10,3.0,-999.0,44,-99.99,,,-99.99,,2013-07-03 20:36:00,
2013-07-03 15:54:00,81.0,55.0,30.04,North,0,0.0,-999.0,41,-99.99,,,-99.99,,2013-07-03 20:54:00,
2013-07-03 16:06:00,82.0,55.0,30.04,North,0,0.0,-999.0,39,-99.99,,,-99.99,,2013-07-03 21:06:00,
2013-07-03 16:13:00,81.0,54.0,30.04,South,190,5.0,-999.0,39,-99.99,,,-99.99,,2013-07-03 21:13:00,
2013-07-03 16:25:00,82.0,54.0,30.04,SSW,200,5.0,-999.0,37,-99.99,,,-99.99,,2013-07-03 21:25:00,
2013-07-03 16:35:00,81.0,54.0,30.04,WSW,250,5.0,-999.0,39,-99.99,,,-99.99,,2013-07-03 21:35:00,
2013-07-03 16:44:00,79.0,54.0,30.03,North,0,0.0,-999.0,41,-99.99,,,-99.99,,2013-07-03 21:44:00,
2013-07-03 16:53:00,81.0,54.0,30.03,North,0,0.0,-999.0,39,-99.99,,,-99.99,,2013-07-03 21:53:00,
2013-07-03 17:14:00,82.0,54.0,30.02,SW,220,3.0,-999.0,37,-99.99,,,-99.99,,2013-07-03 22:14:00,
2013-07-03 17:26:00,81.0,54.0,30.02,WNW,300,3.0,-999.0,39,-99.99,,,-99.99,,2013-07-03 22:26:00,
2013-07-03 17:37:00,82.0,54.0,30.02,North,0,0.0,-999.0,37,-99.99,,,-99.99,,2013-07-03 22:37:00,
2013-07-03 17:45:00,81.0,54.0,30.02,North,0,0.0,-999.0,39,-99.99,,,-99.99,,2013-07-03 22:45:00,
2013-07-03 17:54:00,81.0,54.0,30.02,North,0,0.0,-999.0,39,-99.99,,,-99.99,,2013-07-03 22:54:00,
2013-07-03 18:04:00,81.0,54.0,30.02,North,0,0.0,-999.0,39,-99.99,,,-99.99,,2013-07-03 23:04:00,
2013-07-03 18:13:00,81.0,54.0,30.02,North,0,0.0,-999.0,39,-99.99,,,-99.99,,2013-07-03 23:13:00,
2013-07-03 18:24:00,81.0,54.0,30.02,North,0,0.0,-999.0,39,-99.99,,,-99.99,,2013-07-03 23:24:00,
2013-07-03 18:39:00,79.0,55.0,30.02,North,0,0.0,-999.0,44,-99.99,,,-99.99,,2013-07-03 23:39:00,
2013-07-03 18:54:00,79.0,54.0,30.02,North,0,0.0,-999.0,41,-99.99,,,-99.99,,2013-07-03 23:54:00,
2013-07-03 19:03:00,79.0,54.0,30.02,North,0,0.0,-999.0,41,-99.99,,,-99.99,,2013-07-04 00:03:00,
2013-07-03 19:15:00,79.0,54.0,30.02,North,0,0.0,-999.0,41,-99.99,,,-99.99,,2013-07-04 00:15:00,
2013-07-03 19:24:00,77.0,57.0,30.02,South,180,3.0,-999.0,50,-99.99,,,-99.99,,2013-07-04 00:24:00,
2013-07-03 19:36:00,77.0,57.0,30.02,SSW,200,3.0,-999.0,50,-99.99,,,-99.99,,2013-07-04 00:36:00,
2013-07-03 19:57:00,75.0,57.0,30.02,SSW,210,5.0,-999.0,53,-99.99,,,-99.99,,2013-07-04 00:57:00,
2013-07-03 20:03:00,75.0,59.0,30.03,SW,230,5.0,-999.0,57,-99.99,,,-99.99,,2013-07-04 01:03:00,
2013-07-03 20:15:00,75.0,57.0,30.03,SW,230,5.0,-999.0,53,-99.99,,,-99.99,,2013-07-04 01:15:00,
2013-07-03 20:23:00,73.0,57.0,30.03,North,0,0.0,-999.0,56,-99.99,,,-99.99,,2013-07-04 01:23:00,
2013-07-03 20:37:00,73.0,59.0,30.04,North,0,0.0,-999.0,60,-99.99,,,-99.99,,2013-07-04 01:37:00,
2013-07-03 20:43:00,73.0,57.0,30.04,NW,310,5.0,-999.0,56,-99.99,,,-99.99,,2013-07-04 01:43:00,
2013-07-03 21:14:00,72.0,57.0,30.05,North,0,0.0,-999.0,60,-99.99,,,-99.99,,2013-07-04 02:14:00,
2013-07-03 21:23:00,70.0,57.0,30.05,North,0,0.0,-999.0,64,-99.99,,,-99.99,,2013-07-04 02:23:00,
2013-07-03 21:38:00,70.0,57.0,30.05,North,0,0.0,-999.0,64,-99.99,,,-99.99,,2013-07-04 02:38:00,
2013-07-03 21:47:00,70.0,57.0,30.06,NNE,20,3.0,-999.0,64,-99.99,,,-99.99,,2013-07-04 02:47:00,
2013-07-03 21:55:00,68.0,59.0,30.06,North,0,0.0,-999.0,72,-99.99,,,-99.99,,2013-07-04 02:55:00,
2013-07-03 22:04:00,68.0,57.0,30.07,North,0,0.0,-999.0,68,-99.99,,,-99.99,,2013-07-04 03:04:00,
2013-07-03 22:14:00,68.0,57.0,30.07,North,0,0.0,-999.0,68,-99.99,,,-99.99,,2013-07-04 03:14:00,
2013-07-03 22:26:00,66.0,57.0,30.07,North,0,0.0,-999.0,72,-99.99,,,-99.99,,2013-07-04 03:26:00,
2013-07-03 22:35:00,66.0,59.0,30.07,North,0,0.0,-999.0,77,-99.99,,,-99.99,,2013-07-04 03:35:00,
2013-07-03 22:46:00,66.0,59.0,30.07,North,0,0.0,-999.0,77,-99.99,,,-99.99,,2013-07-04 03:46:00,
2013-07-03 22:56:00,66.0,57.0,30.07,WSW,250,3.0,-999.0,72,-99.99,,,-99.99,,2013-07-04 03:56:00,
2013-07-03 23:02:00,64.0,57.0,30.07,SW,230,5.0,-999.0,77,-99.99,,,-99.99,,2013-07-04 04:02:00,
2013-07-03 23:11:00,64.0,57.0,30.07,North,0,0.0,-999.0,77,-99.99,,,-99.99,,2013-07-04 04:11:00,
2013-07-03 23:22:00,64.0,57.0,30.07,North,0,0.0,-999.0,77,-99.99,,,-99.99,,2013-07-04 04:22:00,
2013-07-03 23:33:00,64.0,57.0,30.07,ENE,70,5.0,-999.0,77,-99.99,,,-99.99,,2013-07-04 04:33:00,
2013-07-03 23:43:00,63.0,57.0,30.07,North,0,0.0,-999.0,82,-99.99,,,-99.99,,2013-07-04 04:43:00,
2013-07-03 23:52:00,63.0,57.0,30.07,North,0,0.0,-999.0,82,-99.99,,,-99.99,,2013-07-04 04:52:00,